createdAt,value
2022-11-19T00:01:28.387Z,85.35
2022-11-19T00:03:56.124Z,84.05
2022-11-19T00:06:27.546Z,81.62
2022-11-19T00:08:55.425Z,87.57
2022-11-19T00:11:45.949Z,85.34
2022-11-19T00:14:15.062Z,88.31
2022-11-19T00:16:44.095Z,88.97
2022-11-19T00:19:11.932Z,91.74
2022-11-19T00:21:39.279Z,89.56
2022-11-19T00:24:07.464Z,91.04
2022-11-19T00:26:34.890Z,93.22
2022-11-19T00:29:02.270Z,88.35
2022-11-19T00:31:29.866Z,86.85
2022-11-19T00:33:58.179Z,90.54
2022-11-19T00:36:25.491Z,90.03
2022-11-19T00:38:53.063Z,87.08
2022-11-19T00:41:20.495Z,87.01
2022-11-19T00:43:48.095Z,85.93
2022-11-19T00:46:18.095Z,86.88
2022-11-19T00:48:46.520Z,84.86
2022-11-19T00:51:14.555Z,86.26
2022-11-19T00:53:42.132Z,86.29
2022-11-19T00:56:11.507Z,87.39
2022-11-19T00:58:38.987Z,86.80
2022-11-19T01:01:07.302Z,87.65
2022-11-19T01:03:35.017Z,85.90
2022-11-19T01:06:02.709Z,84.93
2022-11-19T01:08:30.441Z,85.75
2022-11-19T01:11:05.204Z,85.58
2022-11-19T01:13:35.988Z,84.16
2022-11-19T01:16:05.893Z,84.52
2022-11-19T01:18:33.997Z,84.58
2022-11-19T01:21:01.441Z,84.15
2022-11-19T01:23:28.816Z,83.33
2022-11-19T01:25:56.475Z,83.81
2022-11-19T01:28:24.250Z,83.00
2022-11-19T01:30:52.593Z,84.19
2022-11-19T01:33:20.421Z,83.25
2022-11-19T01:36:01.349Z,83.04
2022-11-19T01:38:29.524Z,83.03
2022-11-19T01:40:57.626Z,84.35
2022-11-19T01:43:49.000Z,84.32
2022-11-19T01:46:24.475Z,84.84
2022-11-19T01:48:55.734Z,85.29
2022-11-19T01:51:25.161Z,84.60
2022-11-19T01:56:39.720Z,83.39
2022-11-19T01:59:10.708Z,84.26
2022-11-19T02:01:38.132Z,86.09
2022-11-19T02:04:07.350Z,84.64
2022-11-19T02:06:34.861Z,83.81
2022-11-19T02:09:02.248Z,86.76
2022-11-19T02:11:52.407Z,87.54
2022-11-19T02:14:42.541Z,91.82
2022-11-19T02:17:22.973Z,84.48
2022-11-19T02:20:29.335Z,81.03
2022-11-19T02:23:16.368Z,84.26
2022-11-19T02:26:04.691Z,80.68
2022-11-19T02:28:38.642Z,80.09
2022-11-19T02:31:10.646Z,79.87
2022-11-19T02:33:46.772Z,79.54
2022-11-19T02:36:19.426Z,83.14
2022-11-19T02:38:51.907Z,87.81
2022-11-19T02:41:44.415Z,91.47
2022-11-19T02:44:41.228Z,92.21
2022-11-19T02:47:12.811Z,93.93
2022-11-19T02:49:43.439Z,94.69
2022-11-19T02:52:12.301Z,92.80
2022-11-19T02:54:39.939Z,90.25
2022-11-19T02:57:09.791Z,88.34
2022-11-19T02:59:59.731Z,83.16
2022-11-19T03:02:53.980Z,83.18
2022-11-19T03:05:26.011Z,83.76
2022-11-19T03:07:53.745Z,84.41
2022-11-19T03:10:23.426Z,85.07
2022-11-19T03:12:55.033Z,83.73
2022-11-19T03:15:44.220Z,81.96
2022-11-19T03:18:27.770Z,82.77
2022-11-19T03:21:00.890Z,82.21
2022-11-19T03:23:53.355Z,81.74
2022-11-19T03:26:27.026Z,80.04
2022-11-19T03:28:56.442Z,79.72
2022-11-19T03:31:26.150Z,79.74
2022-11-19T03:33:57.492Z,80.74
2022-11-19T03:36:35.765Z,80.12
2022-11-19T03:39:05.919Z,80.21
2022-11-19T03:41:35.462Z,79.08
2022-11-19T03:44:08.105Z,78.53
2022-11-19T03:46:37.422Z,78.55
2022-11-19T03:49:05.951Z,77.88
2022-11-19T03:51:48.228Z,77.82
2022-11-19T03:54:16.017Z,78.07
2022-11-19T03:56:45.127Z,78.76
2022-11-19T03:59:13.008Z,78.27
2022-11-19T04:01:40.698Z,78.53
2022-11-19T04:04:27.184Z,78.67
2022-11-19T04:06:54.604Z,77.92
2022-11-19T04:09:22.450Z,78.12
2022-11-19T04:14:16.130Z,75.94
2022-11-19T04:16:43.784Z,80.17
2022-11-19T04:19:11.093Z,82.45
2022-11-19T04:21:38.394Z,80.20
2022-11-19T04:24:06.723Z,80.64
2022-11-19T04:26:34.203Z,81.09
2022-11-19T04:29:01.697Z,83.04
2022-11-19T04:31:29.413Z,84.40
2022-11-19T04:33:56.766Z,83.41
2022-11-19T04:36:24.129Z,77.58
2022-11-19T04:38:51.738Z,73.76
2022-11-19T04:41:19.052Z,75.39
2022-11-19T04:43:46.514Z,73.91
2022-11-19T04:46:14.120Z,74.38
2022-11-19T04:48:41.442Z,76.02
2022-11-19T04:51:08.783Z,74.60
2022-11-19T04:53:36.405Z,74.15
2022-11-19T04:56:03.861Z,73.84
2022-11-19T04:58:31.201Z,73.87
2022-11-19T05:00:58.848Z,74.25
2022-11-19T05:03:28.546Z,76.61
2022-11-19T05:05:56.193Z,75.54
2022-11-19T05:08:24.123Z,76.16
2022-11-19T05:10:51.680Z,73.80
2022-11-19T05:13:19.000Z,78.16
2022-11-19T05:15:46.617Z,80.33
2022-11-19T05:18:14.134Z,80.15
2022-11-19T05:20:41.492Z,80.22
2022-11-19T05:23:09.135Z,83.84
2022-11-19T05:25:36.463Z,85.46
2022-11-19T05:28:03.870Z,84.66
2022-11-19T05:30:31.483Z,79.36
2022-11-19T05:32:58.779Z,75.05
2022-11-19T05:35:26.275Z,82.86
2022-11-19T05:37:53.897Z,78.16
2022-11-19T05:40:21.206Z,75.12
2022-11-19T05:42:48.555Z,74.76
2022-11-19T05:45:16.241Z,75.09
2022-11-19T05:47:48.435Z,75.78
2022-11-19T05:50:16.503Z,79.14
2022-11-19T05:52:43.847Z,85.20
2022-11-19T05:55:11.244Z,81.52
2022-11-19T05:57:38.816Z,81.59
2022-11-19T06:00:06.708Z,78.59
2022-11-19T06:02:40.061Z,77.72
2022-11-19T06:05:08.248Z,78.40
2022-11-19T06:07:35.809Z,77.50
2022-11-19T06:10:03.524Z,77.89
2022-11-19T06:12:31.658Z,80.93
2022-11-19T06:14:58.984Z,79.17
2022-11-19T06:17:26.362Z,83.42
2022-11-19T06:19:53.952Z,86.63
2022-11-19T06:22:21.327Z,86.69
2022-11-19T06:24:48.649Z,82.07
2022-11-19T06:27:16.252Z,79.22
2022-11-19T06:29:43.782Z,79.06
2022-11-19T06:32:11.622Z,78.45
2022-11-19T06:34:39.202Z,77.15
2022-11-19T06:37:06.538Z,77.30
2022-11-19T06:39:33.930Z,77.76
2022-11-19T06:42:21.841Z,79.28
2022-11-19T06:44:49.192Z,82.72
2022-11-19T06:47:16.753Z,86.47
2022-11-19T06:49:44.142Z,88.43
2022-11-19T06:52:11.462Z,82.45
2022-11-19T06:54:42.982Z,79.86
2022-11-19T06:57:10.683Z,82.65
2022-11-19T06:59:39.343Z,80.70
2022-11-19T07:02:07.685Z,81.98
2022-11-19T07:04:35.076Z,84.03
2022-11-19T07:07:02.618Z,79.62
2022-11-19T07:09:30.520Z,82.90
2022-11-19T07:11:58.092Z,85.74
2022-11-19T07:14:25.469Z,86.28
2022-11-19T07:16:53.057Z,86.52
2022-11-19T07:19:20.544Z,86.70
2022-11-19T07:21:48.161Z,80.68
2022-11-19T07:24:17.778Z,80.16
2022-11-19T07:26:45.125Z,84.49
2022-11-19T07:29:14.407Z,84.99
2022-11-19T07:31:42.527Z,87.38
2022-11-19T07:34:10.953Z,88.46
2022-11-19T07:36:38.389Z,88.05
2022-11-19T07:39:06.136Z,88.07
2022-11-19T07:41:52.500Z,88.36
2022-11-19T07:44:20.121Z,88.27
2022-11-19T07:46:47.595Z,88.46
2022-11-19T07:49:15.180Z,86.71
2022-11-19T07:51:43.601Z,85.55
2022-11-19T07:54:12.324Z,84.04
2022-11-19T07:56:39.997Z,84.31
2022-11-19T07:59:07.598Z,85.44
2022-11-19T08:01:35.026Z,85.37
2022-11-19T08:04:04.327Z,85.94
2022-11-19T08:06:34.348Z,85.33
2022-11-19T08:09:02.798Z,84.34
2022-11-19T08:11:30.790Z,83.63
2022-11-19T08:14:01.227Z,82.06
2022-11-19T08:16:47.898Z,81.15
2022-11-19T08:19:16.265Z,81.44
2022-11-19T08:21:45.818Z,80.95
2022-11-19T08:24:14.057Z,80.46
2022-11-19T08:26:42.409Z,79.97
2022-11-19T08:29:15.799Z,81.14
2022-11-19T08:31:45.931Z,80.89
2022-11-19T08:34:13.646Z,77.65
2022-11-19T08:36:41.190Z,76.38
2022-11-19T08:39:08.991Z,75.77
2022-11-19T08:41:55.197Z,74.49
2022-11-19T08:44:23.062Z,75.32
2022-11-19T08:46:50.709Z,78.16
2022-11-19T08:49:18.120Z,78.55
2022-11-19T08:51:45.995Z,78.49
2022-11-19T08:54:13.462Z,78.91
2022-11-19T08:56:40.831Z,76.63
2022-11-19T08:59:08.456Z,73.10
2022-11-19T09:01:35.775Z,71.03
2022-11-19T09:04:03.104Z,74.81
2022-11-19T09:06:30.900Z,76.62
2022-11-19T09:08:58.447Z,78.52
2022-11-19T09:11:25.867Z,76.42
2022-11-19T09:13:53.525Z,77.86
2022-11-19T09:16:20.831Z,76.88
2022-11-19T09:18:48.215Z,77.32
2022-11-19T09:21:15.859Z,77.09
2022-11-19T09:23:45.912Z,76.79
2022-11-19T09:26:15.959Z,69.54
2022-11-19T09:28:45.237Z,69.00
2022-11-19T09:31:18.447Z,69.90
2022-11-19T09:33:51.516Z,76.21
2022-11-19T09:36:19.615Z,71.44
2022-11-19T09:38:47.977Z,70.75
2022-11-19T09:41:17.958Z,69.75
2022-11-19T09:44:12.866Z,74.28
2022-11-19T09:46:58.872Z,75.72
2022-11-19T09:49:36.294Z,75.13
2022-11-19T09:52:07.053Z,74.67
2022-11-19T09:54:37.819Z,71.96
2022-11-19T09:57:10.275Z,72.30
2022-11-19T09:59:41.444Z,74.64
2022-11-19T10:02:20.680Z,71.73
2022-11-19T10:04:49.916Z,71.70
2022-11-19T10:07:28.701Z,69.53
2022-11-19T10:10:12.874Z,68.61
2022-11-19T10:13:17.082Z,69.44
2022-11-19T10:16:12.582Z,72.90
2022-11-19T10:19:28.924Z,72.09
2022-11-19T10:22:11.413Z,71.68
2022-11-19T10:25:12.228Z,70.22
2022-11-19T10:27:51.684Z,68.21
2022-11-19T10:30:21.645Z,66.58
2022-11-19T10:33:00.778Z,66.54
2022-11-19T10:35:37.222Z,67.10
2022-11-19T10:38:19.038Z,68.24
2022-11-19T10:40:59.192Z,65.88
2022-11-19T10:43:38.429Z,68.17
2022-11-19T10:46:09.916Z,67.61
2022-11-19T10:48:43.425Z,70.17
2022-11-19T10:51:21.605Z,69.82
2022-11-19T10:53:51.049Z,68.48
2022-11-19T10:56:21.768Z,70.63
2022-11-19T10:58:53.268Z,65.95
2022-11-19T11:01:32.970Z,64.97
2022-11-19T11:04:05.622Z,67.25
2022-11-19T11:07:00.141Z,68.91
2022-11-19T11:09:35.119Z,68.37
2022-11-19T11:12:42.346Z,68.02
2022-11-19T11:15:18.695Z,68.17
2022-11-19T11:17:49.483Z,71.13
2022-11-19T11:20:20.281Z,69.07
2022-11-19T11:22:50.078Z,68.26
2022-11-19T11:25:28.234Z,69.71
2022-11-19T11:28:14.597Z,67.29
2022-11-19T11:30:52.343Z,72.48
2022-11-19T11:33:38.549Z,68.60
2022-11-19T11:36:07.630Z,73.21
2022-11-19T11:38:52.302Z,71.47
2022-11-19T11:44:15.395Z,68.81
2022-11-19T11:46:48.992Z,68.06
2022-11-19T11:49:39.327Z,69.54
2022-11-19T11:52:09.909Z,66.98
2022-11-19T11:54:38.861Z,70.12
2022-11-19T11:57:18.111Z,68.45
2022-11-19T11:59:46.177Z,67.32
2022-11-19T12:02:21.445Z,71.65
2022-11-19T12:04:51.077Z,70.30
2022-11-19T12:07:40.861Z,70.89
2022-11-19T12:10:23.935Z,72.28
2022-11-19T12:13:23.640Z,71.82
2022-11-19T12:16:09.967Z,71.97
2022-11-19T12:18:47.319Z,71.04
2022-11-19T12:21:33.641Z,68.56
2022-11-19T12:24:32.498Z,67.19
2022-11-19T12:27:20.366Z,61.80
2022-11-19T12:30:18.601Z,64.32
2022-11-19T12:33:28.637Z,66.78
2022-11-19T12:36:11.621Z,61.62
2022-11-19T12:39:00.568Z,60.90
2022-11-19T12:47:06.462Z,61.31
2022-11-19T12:49:52.754Z,61.79
2022-11-19T12:52:41.636Z,59.90
2022-11-19T12:55:18.055Z,61.47
2022-11-19T12:58:25.575Z,56.71
2022-11-19T13:01:15.615Z,57.42
2022-11-19T13:03:50.292Z,59.58
2022-11-19T13:06:22.788Z,59.71
2022-11-19T13:08:54.473Z,57.11
2022-11-19T13:11:49.121Z,60.09
2022-11-19T13:14:35.891Z,63.61
2022-11-19T13:17:05.742Z,64.69
2022-11-19T13:19:35.819Z,62.59
2022-11-19T13:22:27.878Z,62.63
2022-11-19T13:25:25.604Z,62.98
2022-11-19T13:27:55.094Z,66.63
2022-11-19T13:30:26.811Z,62.81
2022-11-19T13:33:12.764Z,63.36
2022-11-19T13:35:47.546Z,58.99
2022-11-19T13:38:28.564Z,63.57
2022-11-19T13:41:04.710Z,64.74
2022-11-19T13:43:51.038Z,62.19
2022-11-19T13:46:25.092Z,61.59
2022-11-19T13:49:13.151Z,63.11
2022-11-19T13:51:53.546Z,62.62
2022-11-19T13:54:26.789Z,65.46
2022-11-19T13:56:56.815Z,63.10
2022-11-19T13:59:25.619Z,62.19
2022-11-19T14:02:04.997Z,59.88
2022-11-19T14:04:52.411Z,58.85
2022-11-19T14:07:50.117Z,60.88
2022-11-19T14:10:38.467Z,60.52
2022-11-19T14:13:08.649Z,60.62
2022-11-19T14:16:03.925Z,60.57
2022-11-19T14:18:54.850Z,63.14
2022-11-19T14:21:44.373Z,64.88
2022-11-19T14:25:06.149Z,65.04
2022-11-19T14:27:35.023Z,63.72
2022-11-19T14:30:09.634Z,63.23
2022-11-19T14:32:46.967Z,63.66
2022-11-19T14:35:23.586Z,62.39
2022-11-19T14:37:57.139Z,63.26
2022-11-19T14:40:32.586Z,63.64
2022-11-19T14:43:19.207Z,62.98
2022-11-19T14:46:03.101Z,64.03
2022-11-19T14:48:39.630Z,64.78
2022-11-19T14:51:10.798Z,67.21
2022-11-19T14:54:04.459Z,69.12
2022-11-19T14:56:33.273Z,70.03
2022-11-19T14:59:15.947Z,68.32
2022-11-19T15:01:57.398Z,66.92
2022-11-19T15:04:35.188Z,67.60
2022-11-19T15:07:12.471Z,67.08
2022-11-19T15:09:52.888Z,66.34
2022-11-19T15:12:21.778Z,70.32
2022-11-19T15:15:07.666Z,69.13
2022-11-19T15:17:35.654Z,66.67
2022-11-19T15:20:29.557Z,65.73
2022-11-19T15:23:38.377Z,64.98
2022-11-19T15:26:38.773Z,64.29
2022-11-19T15:29:38.088Z,63.26
2022-11-19T15:32:24.356Z,63.05
2022-11-19T15:35:11.502Z,62.68
2022-11-19T15:37:44.588Z,62.27
2022-11-19T15:40:15.911Z,63.39
2022-11-19T15:42:50.112Z,62.37
2022-11-19T15:45:21.187Z,62.52
2022-11-19T15:48:19.368Z,61.95
2022-11-19T15:50:47.193Z,64.37
2022-11-19T15:53:17.407Z,64.66
2022-11-19T15:55:51.736Z,64.21
2022-11-19T15:58:22.343Z,62.76
2022-11-19T16:00:50.705Z,63.07
2022-11-19T16:03:18.825Z,64.58
2022-11-19T16:05:59.366Z,66.25
2022-11-19T16:08:28.535Z,67.30
2022-11-19T16:11:20.164Z,68.58
2022-11-19T16:14:11.474Z,69.05
2022-11-19T16:16:58.551Z,69.96
2022-11-19T16:19:26.251Z,71.44
2022-11-19T16:22:03.140Z,70.28
2022-11-19T16:24:49.686Z,70.35
2022-11-19T16:27:23.269Z,70.25
2022-11-19T16:29:51.052Z,70.91
2022-11-19T16:32:20.042Z,70.43
2022-11-19T16:34:47.526Z,70.63
2022-11-19T16:37:17.902Z,69.47
2022-11-19T16:39:50.719Z,68.95
2022-11-19T16:42:23.093Z,68.62
2022-11-19T16:44:54.124Z,69.92
2022-11-19T16:47:34.582Z,70.46
2022-11-19T16:50:24.858Z,70.39
2022-11-19T16:52:52.473Z,71.77
2022-11-19T16:55:19.882Z,72.96
2022-11-19T16:57:49.029Z,71.12
2022-11-19T17:00:22.773Z,71.72
2022-11-19T17:02:50.985Z,72.06
2022-11-19T17:05:20.733Z,71.69
2022-11-19T17:07:49.963Z,72.03
2022-11-19T17:10:30.495Z,72.45
2022-11-19T17:13:04.134Z,70.65
2022-11-19T17:15:36.902Z,70.57
2022-11-19T17:18:22.786Z,71.50
2022-11-19T17:20:52.886Z,71.51
2022-11-19T17:23:25.593Z,73.50
2022-11-19T17:25:56.227Z,72.20
2022-11-19T17:28:38.344Z,73.06
2022-11-19T17:31:14.976Z,72.39
2022-11-19T17:33:54.668Z,71.63
2022-11-19T17:36:25.842Z,72.83
2022-11-19T17:38:53.996Z,73.17
2022-11-19T17:41:42.194Z,73.09
2022-11-19T17:44:31.786Z,73.64
2022-11-19T17:46:59.228Z,74.20
2022-11-19T17:49:26.939Z,73.37
2022-11-19T17:51:55.454Z,71.84
2022-11-19T17:54:24.132Z,71.66
2022-11-19T17:56:52.068Z,72.59
2022-11-19T17:59:19.412Z,71.24
2022-11-19T18:01:48.031Z,71.22
2022-11-19T18:04:15.902Z,71.33
2022-11-19T18:06:44.345Z,71.92
2022-11-19T18:09:11.902Z,70.47
2022-11-19T18:11:40.414Z,70.48
2022-11-19T18:14:10.148Z,71.14
2022-11-19T18:16:39.895Z,71.48
2022-11-19T18:19:22.653Z,71.00
2022-11-19T18:21:53.273Z,71.31
2022-11-19T18:24:21.321Z,68.95
2022-11-19T18:26:49.819Z,70.46
2022-11-19T18:29:17.812Z,69.79
2022-11-19T18:31:48.456Z,70.57
2022-11-19T18:34:21.378Z,70.14
2022-11-19T18:36:49.919Z,69.25
2022-11-19T18:39:18.292Z,69.60
2022-11-19T18:41:45.740Z,69.94
2022-11-19T18:44:34.246Z,71.39
2022-11-19T18:47:13.203Z,71.23
2022-11-19T18:49:42.453Z,71.19
2022-11-19T18:52:13.429Z,72.52
2022-11-19T18:54:41.469Z,72.54
2022-11-19T18:57:09.859Z,72.10
2022-11-19T18:59:37.759Z,72.45
2022-11-19T19:02:07.511Z,71.37
2022-11-19T19:04:34.976Z,71.32
2022-11-19T19:07:02.812Z,71.64
2022-11-19T19:09:30.866Z,72.44
2022-11-19T19:12:18.343Z,71.83
2022-11-19T19:14:48.570Z,72.57
2022-11-19T19:17:16.626Z,72.84
2022-11-19T19:19:44.804Z,72.20
2022-11-19T19:22:12.844Z,72.28
2022-11-19T19:24:40.318Z,72.00
2022-11-19T19:27:08.065Z,71.49
2022-11-19T19:29:36.081Z,70.10
2022-11-19T19:32:04.066Z,70.29
2022-11-19T19:34:32.988Z,71.46
2022-11-19T19:37:01.223Z,70.83
2022-11-19T19:39:28.934Z,71.60
2022-11-19T19:41:56.936Z,71.97
2022-11-19T19:44:26.132Z,71.23
2022-11-19T19:46:54.075Z,72.22
2022-11-19T19:49:22.525Z,70.90
2022-11-19T19:51:51.348Z,69.22
2022-11-19T19:54:19.340Z,71.27
2022-11-19T19:56:48.565Z,71.87
2022-11-19T19:59:18.841Z,72.77
2022-11-19T20:01:47.776Z,73.63
2022-11-19T20:04:16.104Z,73.00
2022-11-19T20:06:46.776Z,79.89
2022-11-19T20:09:14.787Z,74.18
2022-11-19T20:11:43.090Z,72.15
2022-11-19T20:14:11.385Z,72.31
2022-11-19T20:16:41.089Z,71.37
2022-11-19T20:19:12.926Z,72.41
2022-11-19T20:21:41.009Z,70.23
2022-11-19T20:24:12.427Z,70.95
2022-11-19T20:26:41.015Z,71.36
2022-11-19T20:29:12.356Z,69.51
2022-11-19T20:31:41.772Z,71.78
2022-11-19T20:34:12.488Z,72.37
2022-11-19T20:36:40.571Z,72.18
2022-11-19T20:39:08.781Z,72.33
2022-11-19T20:41:55.031Z,71.47
2022-11-19T20:44:24.023Z,71.36
2022-11-19T20:46:59.696Z,70.79
2022-11-19T20:49:29.735Z,71.14
2022-11-19T20:51:58.028Z,70.73
2022-11-19T20:54:26.552Z,72.34
2022-11-19T20:56:55.044Z,71.78
2022-11-19T20:59:24.297Z,71.04
2022-11-19T21:01:53.315Z,71.12
2022-11-19T21:04:22.267Z,71.97
2022-11-19T21:06:50.693Z,70.90
2022-11-19T21:09:20.236Z,72.77
2022-11-19T21:11:48.011Z,72.17
2022-11-19T21:14:17.836Z,71.53
2022-11-19T21:16:45.449Z,70.53
2022-11-19T21:19:13.553Z,70.98
2022-11-19T21:21:41.574Z,70.55
2022-11-19T21:24:09.582Z,72.79
2022-11-19T21:26:37.267Z,74.35
2022-11-19T21:29:05.144Z,73.01
2022-11-19T21:31:46.402Z,72.56
2022-11-19T21:34:18.070Z,72.95
2022-11-19T21:36:46.284Z,71.20
2022-11-19T21:39:16.377Z,72.36
2022-11-19T21:41:44.190Z,72.33
2022-11-19T21:44:13.327Z,71.85
2022-11-19T21:46:44.407Z,71.89
2022-11-19T21:49:11.748Z,70.20
2022-11-19T21:51:39.749Z,70.08
2022-11-19T21:54:08.188Z,69.85
2022-11-19T21:56:38.867Z,70.82
2022-11-19T21:59:09.568Z,72.31
2022-11-19T22:01:37.674Z,70.90
2022-11-19T22:04:05.353Z,71.42
2022-11-19T22:06:32.762Z,72.41
2022-11-19T22:09:00.141Z,71.98
2022-11-19T22:11:31.058Z,71.17
2022-11-19T22:14:01.773Z,73.21
2022-11-19T22:16:30.818Z,71.73
2022-11-19T22:18:58.217Z,71.64
2022-11-19T22:21:26.026Z,72.15
2022-11-19T22:26:35.159Z,70.69
2022-11-19T22:29:02.898Z,69.19
2022-11-19T22:31:30.230Z,69.25
2022-11-19T22:33:57.554Z,67.81
2022-11-19T22:36:25.315Z,68.36
2022-11-19T22:38:52.836Z,69.56
2022-11-19T22:41:21.262Z,69.58
2022-11-19T22:43:49.286Z,69.30
2022-11-19T22:46:17.741Z,70.55
2022-11-19T22:48:45.058Z,70.23
2022-11-19T22:51:16.791Z,69.92
2022-11-19T22:53:45.013Z,69.04
2022-11-19T22:56:14.731Z,68.99
2022-11-19T22:58:42.384Z,69.25
2022-11-19T23:01:28.773Z,68.49
2022-11-19T23:03:59.470Z,69.12
2022-11-19T23:06:26.881Z,68.96
2022-11-19T23:08:54.887Z,69.83
2022-11-19T23:11:42.325Z,70.07
2022-11-19T23:14:11.837Z,69.71
2022-11-19T23:16:40.395Z,69.48
2022-11-19T23:19:08.971Z,69.86
2022-11-19T23:21:36.688Z,70.04
2022-11-19T23:24:04.912Z,67.96
2022-11-19T23:26:32.995Z,66.50
2022-11-19T23:29:00.725Z,67.38
2022-11-19T23:31:31.150Z,66.57
2022-11-19T23:33:59.636Z,66.72
2022-11-19T23:36:38.396Z,66.20
2022-11-19T23:39:06.517Z,66.34
2022-11-19T23:41:34.324Z,65.86
2022-11-19T23:44:01.880Z,66.37
2022-11-19T23:46:32.886Z,66.80
2022-11-19T23:49:00.913Z,67.22
2022-11-19T23:51:31.233Z,66.22
2022-11-19T23:53:58.921Z,65.63
2022-11-19T23:56:27.263Z,66.37
2022-11-19T23:58:54.857Z,64.96
